Sisseton, South Dakota
Current Conditions -  °F | °C
As of 2:16 AM on Thursday 29 Jan 2015 (Local Time) from KETH Reporting Station
Overcast Overcast  
Wind Chill: 12°   Ceiling: 1700
Heat Index: 27°   Visibility: 10mi
Dew Point: 25°   Wind: 24mph
Humidity: 93%   Direction: 320°NW
Pressure: 30.14"   Gusts: 35mph
Location:  45.66°N, 97.05°W
Report Text: KETH 290816Z AUTO 32021G30KT 10SM OVC017 M03/M04 A3014 RMK AO2
Loading
Personal Weather Stations






























Interactive Weather Map New forecast layout! Learn more

10-Day Weather Forecast

Advertisements
Track Severe Weather on mobile